sensor_id;sensor_type;location;lat;lon;timestamp;P1;durP1;ratioP1;P2;durP2;ratioP2
57947;SDS011;43754;56.992;24.292;2022-11-18T00:01:03;1.10;;;0.75;;
57947;SDS011;43754;56.992;24.292;2022-11-18T00:03:38;1.20;;;1.05;;
57947;SDS011;43754;56.992;24.292;2022-11-18T00:06:11;0.90;;;0.77;;
57947;SDS011;43754;56.992;24.292;2022-11-18T00:08:45;0.77;;;0.77;;
57947;SDS011;43754;56.992;24.292;2022-11-18T00:11:17;1.65;;;0.70;;
57947;SDS011;43754;56.992;24.292;2022-11-18T00:14:10;1.75;;;1.02;;
57947;SDS011;43754;56.992;24.292;2022-11-18T00:16:51;1.55;;;0.85;;
57947;SDS011;43754;56.992;24.292;2022-11-18T00:19:27;1.25;;;0.60;;
57947;SDS011;43754;56.992;24.292;2022-11-18T00:22:01;1.58;;;0.73;;
57947;SDS011;43754;56.992;24.292;2022-11-18T00:24:33;0.52;;;0.40;;
57947;SDS011;43754;56.992;24.292;2022-11-18T00:27:05;1.73;;;0.60;;
57947;SDS011;43754;56.992;24.292;2022-11-18T00:29:37;0.70;;;0.70;;
57947;SDS011;43754;56.992;24.292;2022-11-18T00:32:09;1.05;;;0.60;;
57947;SDS011;43754;56.992;24.292;2022-11-18T00:34:42;1.85;;;0.43;;
57947;SDS011;43754;56.992;24.292;2022-11-18T00:37:14;0.52;;;0.52;;
57947;SDS011;43754;56.992;24.292;2022-11-18T00:39:46;0.80;;;0.60;;
57947;SDS011;43754;56.992;24.292;2022-11-18T00:42:18;1.23;;;0.40;;
57947;SDS011;43754;56.992;24.292;2022-11-18T00:45:09;0.60;;;0.60;;
57947;SDS011;43754;56.992;24.292;2022-11-18T00:47:41;0.35;;;0.35;;
57947;SDS011;43754;56.992;24.292;2022-11-18T00:50:14;2.28;;;0.47;;
57947;SDS011;43754;56.992;24.292;2022-11-18T00:52:47;0.50;;;0.50;;
57947;SDS011;43754;56.992;24.292;2022-11-18T00:55:19;0.43;;;0.40;;
57947;SDS011;43754;56.992;24.292;2022-11-18T00:57:51;0.40;;;0.35;;
57947;SDS011;43754;56.992;24.292;2022-11-18T01:00:24;0.70;;;0.30;;
57947;SDS011;43754;56.992;24.292;2022-11-18T01:02:56;0.52;;;0.38;;
57947;SDS011;43754;56.992;24.292;2022-11-18T01:05:29;0.65;;;0.45;;
57947;SDS011;43754;56.992;24.292;2022-11-18T01:08:01;0.50;;;0.40;;
57947;SDS011;43754;56.992;24.292;2022-11-18T01:10:33;0.60;;;0.50;;
57947;SDS011;43754;56.992;24.292;2022-11-18T01:13:06;0.35;;;0.30;;
57947;SDS011;43754;56.992;24.292;2022-11-18T01:15:52;0.80;;;0.80;;
57947;SDS011;43754;56.992;24.292;2022-11-18T01:18:26;0.60;;;0.43;;
57947;SDS011;43754;56.992;24.292;2022-11-18T01:21:03;0.65;;;0.65;;
57947;SDS011;43754;56.992;24.292;2022-11-18T01:23:36;0.80;;;0.70;;
57947;SDS011;43754;56.992;24.292;2022-11-18T01:26:10;1.90;;;0.80;;
57947;SDS011;43754;56.992;24.292;2022-11-18T01:28:43;7.57;;;1.05;;
57947;SDS011;43754;56.992;24.292;2022-11-18T01:31:16;0.85;;;0.73;;
57947;SDS011;43754;56.992;24.292;2022-11-18T01:33:49;1.33;;;0.60;;
57947;SDS011;43754;56.992;24.292;2022-11-18T01:36:23;0.47;;;0.47;;
57947;SDS011;43754;56.992;24.292;2022-11-18T01:38:56;1.02;;;0.75;;
57947;SDS011;43754;56.992;24.292;2022-11-18T01:41:28;0.55;;;0.55;;
57947;SDS011;43754;56.992;24.292;2022-11-18T01:44:01;1.30;;;0.70;;
57947;SDS011;43754;56.992;24.292;2022-11-18T01:46:34;1.35;;;1.02;;
57947;SDS011;43754;56.992;24.292;2022-11-18T01:49:06;1.55;;;1.00;;
57947;SDS011;43754;56.992;24.292;2022-11-18T01:51:45;0.85;;;0.60;;
57947;SDS011;43754;56.992;24.292;2022-11-18T01:54:20;0.98;;;0.60;;
57947;SDS011;43754;56.992;24.292;2022-11-18T01:56:56;0.52;;;0.52;;
57947;SDS011;43754;56.992;24.292;2022-11-18T01:59:34;0.90;;;0.50;;
57947;SDS011;43754;56.992;24.292;2022-11-18T02:02:10;0.80;;;0.70;;
57947;SDS011;43754;56.992;24.292;2022-11-18T02:04:46;0.65;;;0.60;;
57947;SDS011;43754;56.992;24.292;2022-11-18T02:07:21;0.50;;;0.40;;
57947;SDS011;43754;56.992;24.292;2022-11-18T02:09:54;0.57;;;0.55;;
57947;SDS011;43754;56.992;24.292;2022-11-18T02:12:29;1.02;;;0.50;;
57947;SDS011;43754;56.992;24.292;2022-11-18T02:15:02;1.05;;;0.70;;
57947;SDS011;43754;56.992;24.292;2022-11-18T02:17:38;1.52;;;0.55;;
57947;SDS011;43754;56.992;24.292;2022-11-18T02:20:24;0.60;;;0.50;;
57947;SDS011;43754;56.992;24.292;2022-11-18T02:29:33;0.93;;;0.57;;
57947;SDS011;43754;56.992;24.292;2022-11-18T02:32:09;0.95;;;0.50;;
57947;SDS011;43754;56.992;24.292;2022-11-18T02:34:46;1.05;;;0.52;;
57947;SDS011;43754;56.992;24.292;2022-11-18T02:37:23;0.75;;;0.70;;
57947;SDS011;43754;56.992;24.292;2022-11-18T02:40:03;0.60;;;0.60;;
57947;SDS011;43754;56.992;24.292;2022-11-18T02:42:38;0.40;;;0.40;;
57947;SDS011;43754;56.992;24.292;2022-11-18T02:45:16;0.68;;;0.68;;
57947;SDS011;43754;56.992;24.292;2022-11-18T02:47:50;0.75;;;0.60;;
57947;SDS011;43754;56.992;24.292;2022-11-18T02:50:24;0.88;;;0.50;;
57947;SDS011;43754;56.992;24.292;2022-11-18T02:52:59;0.77;;;0.60;;
57947;SDS011;43754;56.992;24.292;2022-11-18T02:55:34;0.80;;;0.52;;
57947;SDS011;43754;56.992;24.292;2022-11-18T02:58:08;0.88;;;0.60;;
57947;SDS011;43754;56.992;24.292;2022-11-18T03:00:44;1.65;;;0.60;;
57947;SDS011;43754;56.992;24.292;2022-11-18T03:03:24;1.08;;;0.70;;
57947;SDS011;43754;56.992;24.292;2022-11-18T03:06:01;0.55;;;0.55;;
57947;SDS011;43754;56.992;24.292;2022-11-18T03:08:40;1.00;;;0.65;;
57947;SDS011;43754;56.992;24.292;2022-11-18T03:11:17;1.10;;;0.77;;
57947;SDS011;43754;56.992;24.292;2022-11-18T03:13:58;0.63;;;0.60;;
57947;SDS011;43754;56.992;24.292;2022-11-18T03:16:39;0.73;;;0.45;;
57947;SDS011;43754;56.992;24.292;2022-11-18T03:19:17;0.73;;;0.57;;
57947;SDS011;43754;56.992;24.292;2022-11-18T03:21:56;0.77;;;0.40;;
57947;SDS011;43754;56.992;24.292;2022-11-18T03:24:38;0.55;;;0.40;;
57947;SDS011;43754;56.992;24.292;2022-11-18T03:27:14;3.17;;;0.50;;
57947;SDS011;43754;56.992;24.292;2022-11-18T03:29:53;0.60;;;0.60;;
57947;SDS011;43754;56.992;24.292;2022-11-18T03:32:35;0.60;;;0.50;;
57947;SDS011;43754;56.992;24.292;2022-11-18T03:35:12;0.52;;;0.50;;
57947;SDS011;43754;56.992;24.292;2022-11-18T03:37:48;0.70;;;0.50;;
57947;SDS011;43754;56.992;24.292;2022-11-18T03:40:25;0.93;;;0.70;;
57947;SDS011;43754;56.992;24.292;2022-11-18T03:43:02;1.15;;;0.57;;
57947;SDS011;43754;56.992;24.292;2022-11-18T03:45:40;0.85;;;0.65;;
57947;SDS011;43754;56.992;24.292;2022-11-18T03:48:18;1.17;;;0.85;;
57947;SDS011;43754;56.992;24.292;2022-11-18T03:50:53;0.70;;;0.60;;
57947;SDS011;43754;56.992;24.292;2022-11-18T03:53:31;0.60;;;0.60;;
57947;SDS011;43754;56.992;24.292;2022-11-18T03:56:08;0.45;;;0.43;;
57947;SDS011;43754;56.992;24.292;2022-11-18T03:58:48;0.73;;;0.70;;
57947;SDS011;43754;56.992;24.292;2022-11-18T04:01:28;0.40;;;0.40;;
57947;SDS011;43754;56.992;24.292;2022-11-18T04:04:07;1.13;;;0.57;;
57947;SDS011;43754;56.992;24.292;2022-11-18T04:06:41;0.50;;;0.50;;
57947;SDS011;43754;56.992;24.292;2022-11-18T04:09:17;0.60;;;0.60;;
57947;SDS011;43754;56.992;24.292;2022-11-18T04:11:56;1.02;;;0.70;;
57947;SDS011;43754;56.992;24.292;2022-11-18T04:14:33;1.30;;;1.00;;
57947;SDS011;43754;56.992;24.292;2022-11-18T04:17:08;1.25;;;0.70;;
57947;SDS011;43754;56.992;24.292;2022-11-18T04:19:43;0.90;;;0.80;;
57947;SDS011;43754;56.992;24.292;2022-11-18T04:22:15;1.10;;;0.95;;
57947;SDS011;43754;56.992;24.292;2022-11-18T04:24:48;1.02;;;0.80;;
57947;SDS011;43754;56.992;24.292;2022-11-18T04:27:20;1.10;;;0.88;;
57947;SDS011;43754;56.992;24.292;2022-11-18T04:29:52;2.17;;;0.70;;
57947;SDS011;43754;56.992;24.292;2022-11-18T04:32:24;1.75;;;0.82;;
57947;SDS011;43754;56.992;24.292;2022-11-18T04:34:57;0.85;;;0.80;;
57947;SDS011;43754;56.992;24.292;2022-11-18T04:37:29;1.25;;;0.93;;
57947;SDS011;43754;56.992;24.292;2022-11-18T04:40:01;1.20;;;0.77;;
57947;SDS011;43754;56.992;24.292;2022-11-18T04:42:33;2.25;;;1.30;;
57947;SDS011;43754;56.992;24.292;2022-11-18T04:45:06;1.20;;;0.88;;
57947;SDS011;43754;56.992;24.292;2022-11-18T04:47:38;1.38;;;0.88;;
57947;SDS011;43754;56.992;24.292;2022-11-18T04:50:12;1.52;;;0.93;;
57947;SDS011;43754;56.992;24.292;2022-11-18T04:52:44;1.08;;;0.77;;
57947;SDS011;43754;56.992;24.292;2022-11-18T04:55:16;0.77;;;0.77;;
57947;SDS011;43754;56.992;24.292;2022-11-18T04:57:48;1.42;;;1.10;;
57947;SDS011;43754;56.992;24.292;2022-11-18T05:00:20;1.40;;;1.00;;
57947;SDS011;43754;56.992;24.292;2022-11-18T05:02:52;1.30;;;0.85;;
57947;SDS011;43754;56.992;24.292;2022-11-18T05:05:26;1.73;;;1.27;;
57947;SDS011;43754;56.992;24.292;2022-11-18T05:07:58;3.30;;;1.38;;
57947;SDS011;43754;56.992;24.292;2022-11-18T05:10:30;1.73;;;1.00;;
57947;SDS011;43754;56.992;24.292;2022-11-18T05:13:02;2.00;;;1.10;;
57947;SDS011;43754;56.992;24.292;2022-11-18T05:15:34;1.77;;;1.23;;
57947;SDS011;43754;56.992;24.292;2022-11-18T05:18:08;1.67;;;1.38;;
57947;SDS011;43754;56.992;24.292;2022-11-18T05:20:42;2.60;;;1.33;;
57947;SDS011;43754;56.992;24.292;2022-11-18T05:23:14;1.55;;;1.40;;
57947;SDS011;43754;56.992;24.292;2022-11-18T05:25:46;1.52;;;1.33;;
57947;SDS011;43754;56.992;24.292;2022-11-18T05:28:18;1.98;;;1.25;;
57947;SDS011;43754;56.992;24.292;2022-11-18T05:30:50;2.17;;;1.65;;
57947;SDS011;43754;56.992;24.292;2022-11-18T05:33:22;3.67;;;1.67;;
57947;SDS011;43754;56.992;24.292;2022-11-18T05:35:55;3.03;;;1.30;;
57947;SDS011;43754;56.992;24.292;2022-11-18T05:38:27;2.40;;;1.80;;
57947;SDS011;43754;56.992;24.292;2022-11-18T05:40:59;2.35;;;1.55;;
57947;SDS011;43754;56.992;24.292;2022-11-18T05:43:32;3.47;;;1.70;;
57947;SDS011;43754;56.992;24.292;2022-11-18T05:46:05;2.45;;;1.55;;
57947;SDS011;43754;56.992;24.292;2022-11-18T05:48:37;2.08;;;1.25;;
57947;SDS011;43754;56.992;24.292;2022-11-18T05:51:10;2.30;;;1.50;;
57947;SDS011;43754;56.992;24.292;2022-11-18T05:53:42;4.13;;;1.52;;
57947;SDS011;43754;56.992;24.292;2022-11-18T05:56:15;4.70;;;2.28;;
57947;SDS011;43754;56.992;24.292;2022-11-18T05:58:51;2.85;;;1.67;;
57947;SDS011;43754;56.992;24.292;2022-11-18T06:01:24;3.08;;;1.42;;
57947;SDS011;43754;56.992;24.292;2022-11-18T06:04:00;3.05;;;1.70;;
57947;SDS011;43754;56.992;24.292;2022-11-18T06:06:40;1.65;;;1.15;;
57947;SDS011;43754;56.992;24.292;2022-11-18T06:09:13;2.47;;;1.45;;
57947;SDS011;43754;56.992;24.292;2022-11-18T06:11:49;1.95;;;1.80;;
57947;SDS011;43754;56.992;24.292;2022-11-18T06:14:27;3.13;;;1.75;;
57947;SDS011;43754;56.992;24.292;2022-11-18T06:17:05;2.17;;;1.33;;
57947;SDS011;43754;56.992;24.292;2022-11-18T06:19:40;1.60;;;1.20;;
57947;SDS011;43754;56.992;24.292;2022-11-18T06:22:14;1.58;;;1.33;;
57947;SDS011;43754;56.992;24.292;2022-11-18T06:24:46;3.08;;;0.90;;
57947;SDS011;43754;56.992;24.292;2022-11-18T06:27:18;2.28;;;1.40;;
57947;SDS011;43754;56.992;24.292;2022-11-18T06:29:51;1.23;;;0.93;;
57947;SDS011;43754;56.992;24.292;2022-11-18T06:32:23;2.15;;;1.23;;
57947;SDS011;43754;56.992;24.292;2022-11-18T06:34:55;2.67;;;1.42;;
57947;SDS011;43754;56.992;24.292;2022-11-18T06:37:28;2.60;;;1.10;;
57947;SDS011;43754;56.992;24.292;2022-11-18T06:40:00;1.38;;;1.08;;
57947;SDS011;43754;56.992;24.292;2022-11-18T06:42:32;2.88;;;1.10;;
57947;SDS011;43754;56.992;24.292;2022-11-18T06:47:55;1.30;;;1.00;;
57947;SDS011;43754;56.992;24.292;2022-11-18T06:50:27;1.40;;;1.05;;
57947;SDS011;43754;56.992;24.292;2022-11-18T06:53:01;1.73;;;1.10;;
57947;SDS011;43754;56.992;24.292;2022-11-18T06:55:33;1.45;;;1.13;;
57947;SDS011;43754;56.992;24.292;2022-11-18T06:58:05;1.42;;;0.98;;
57947;SDS011;43754;56.992;24.292;2022-11-18T07:00:37;5.53;;;1.00;;
57947;SDS011;43754;56.992;24.292;2022-11-18T07:03:09;1.63;;;0.90;;
57947;SDS011;43754;56.992;24.292;2022-11-18T07:05:41;1.55;;;1.00;;
57947;SDS011;43754;56.992;24.292;2022-11-18T07:08:15;1.77;;;1.35;;
57947;SDS011;43754;56.992;24.292;2022-11-18T07:10:50;1.58;;;1.00;;
57947;SDS011;43754;56.992;24.292;2022-11-18T07:13:23;1.63;;;0.90;;
57947;SDS011;43754;56.992;24.292;2022-11-18T07:15:54;1.67;;;1.05;;
57947;SDS011;43754;56.992;24.292;2022-11-18T07:18:28;1.75;;;1.02;;
57947;SDS011;43754;56.992;24.292;2022-11-18T07:21:00;1.90;;;1.50;;
57947;SDS011;43754;56.992;24.292;2022-11-18T07:23:34;3.05;;;1.50;;
57947;SDS011;43754;56.992;24.292;2022-11-18T07:26:07;1.25;;;1.08;;
57947;SDS011;43754;56.992;24.292;2022-11-18T07:28:39;1.88;;;1.10;;
57947;SDS011;43754;56.992;24.292;2022-11-18T07:31:12;2.78;;;1.27;;
57947;SDS011;43754;56.992;24.292;2022-11-18T07:33:45;1.42;;;1.08;;
57947;SDS011;43754;56.992;24.292;2022-11-18T07:36:18;3.20;;;1.58;;
57947;SDS011;43754;56.992;24.292;2022-11-18T07:38:53;1.67;;;1.30;;
57947;SDS011;43754;56.992;24.292;2022-11-18T07:41:28;1.50;;;1.00;;
57947;SDS011;43754;56.992;24.292;2022-11-18T07:44:01;4.07;;;2.00;;
57947;SDS011;43754;56.992;24.292;2022-11-18T07:46:34;1.98;;;1.35;;
57947;SDS011;43754;56.992;24.292;2022-11-18T07:49:07;1.80;;;1.48;;
57947;SDS011;43754;56.992;24.292;2022-11-18T07:51:39;2.80;;;2.58;;
57947;SDS011;43754;56.992;24.292;2022-11-18T07:54:13;6.65;;;6.03;;
57947;SDS011;43754;56.992;24.292;2022-11-18T07:56:47;4.00;;;1.50;;
57947;SDS011;43754;56.992;24.292;2022-11-18T07:59:19;1.50;;;1.27;;
57947;SDS011;43754;56.992;24.292;2022-11-18T08:01:52;1.77;;;1.38;;
57947;SDS011;43754;56.992;24.292;2022-11-18T08:04:24;1.65;;;1.30;;
57947;SDS011;43754;56.992;24.292;2022-11-18T08:06:55;7.82;;;1.58;;
57947;SDS011;43754;56.992;24.292;2022-11-18T08:09:29;4.30;;;3.63;;
57947;SDS011;43754;56.992;24.292;2022-11-18T08:12:01;2.70;;;2.40;;
57947;SDS011;43754;56.992;24.292;2022-11-18T08:14:33;4.15;;;1.73;;
57947;SDS011;43754;56.992;24.292;2022-11-18T08:17:05;2.10;;;1.33;;
57947;SDS011;43754;56.992;24.292;2022-11-18T08:19:37;3.65;;;1.80;;
57947;SDS011;43754;56.992;24.292;2022-11-18T08:22:09;1.83;;;1.50;;
57947;SDS011;43754;56.992;24.292;2022-11-18T08:24:43;2.20;;;1.67;;
57947;SDS011;43754;56.992;24.292;2022-11-18T08:27:15;2.47;;;2.00;;
57947;SDS011;43754;56.992;24.292;2022-11-18T08:29:47;3.45;;;1.92;;
57947;SDS011;43754;56.992;24.292;2022-11-18T08:32:19;2.45;;;2.00;;
57947;SDS011;43754;56.992;24.292;2022-11-18T08:34:51;5.75;;;5.25;;
57947;SDS011;43754;56.992;24.292;2022-11-18T08:37:23;2.60;;;1.85;;
57947;SDS011;43754;56.992;24.292;2022-11-18T08:39:56;3.30;;;2.10;;
57947;SDS011;43754;56.992;24.292;2022-11-18T08:42:28;2.42;;;2.00;;
57947;SDS011;43754;56.992;24.292;2022-11-18T08:45:05;2.92;;;2.13;;
57947;SDS011;43754;56.992;24.292;2022-11-18T08:47:40;2.53;;;1.98;;
57947;SDS011;43754;56.992;24.292;2022-11-18T08:50:12;3.67;;;2.45;;
57947;SDS011;43754;56.992;24.292;2022-11-18T08:52:44;2.60;;;2.10;;
57947;SDS011;43754;56.992;24.292;2022-11-18T08:55:18;2.65;;;2.00;;
57947;SDS011;43754;56.992;24.292;2022-11-18T08:57:49;2.95;;;1.88;;
57947;SDS011;43754;56.992;24.292;2022-11-18T09:00:22;8.52;;;4.88;;
57947;SDS011;43754;56.992;24.292;2022-11-18T09:02:57;3.45;;;2.30;;
57947;SDS011;43754;56.992;24.292;2022-11-18T09:05:29;8.93;;;5.63;;
57947;SDS011;43754;56.992;24.292;2022-11-18T09:08:01;6.63;;;2.83;;
57947;SDS011;43754;56.992;24.292;2022-11-18T09:10:35;3.10;;;2.13;;
57947;SDS011;43754;56.992;24.292;2022-11-18T09:13:07;3.40;;;2.22;;
57947;SDS011;43754;56.992;24.292;2022-11-18T09:16:00;3.85;;;2.55;;
57947;SDS011;43754;56.992;24.292;2022-11-18T09:18:32;4.15;;;2.90;;
57947;SDS011;43754;56.992;24.292;2022-11-18T09:21:05;3.33;;;2.50;;
57947;SDS011;43754;56.992;24.292;2022-11-18T09:23:38;4.38;;;2.70;;
57947;SDS011;43754;56.992;24.292;2022-11-18T09:26:13;3.22;;;2.20;;
57947;SDS011;43754;56.992;24.292;2022-11-18T09:28:46;4.57;;;2.60;;
57947;SDS011;43754;56.992;24.292;2022-11-18T09:31:18;4.43;;;2.72;;
57947;SDS011;43754;56.992;24.292;2022-11-18T09:33:50;3.38;;;2.80;;
57947;SDS011;43754;56.992;24.292;2022-11-18T09:36:23;3.35;;;2.60;;
57947;SDS011;43754;56.992;24.292;2022-11-18T09:38:57;4.57;;;2.90;;
57947;SDS011;43754;56.992;24.292;2022-11-18T09:41:40;12.07;;;6.82;;
57947;SDS011;43754;56.992;24.292;2022-11-18T09:44:29;4.35;;;3.00;;
57947;SDS011;43754;56.992;24.292;2022-11-18T09:47:13;5.95;;;3.58;;
57947;SDS011;43754;56.992;24.292;2022-11-18T09:49:56;4.85;;;3.33;;
57947;SDS011;43754;56.992;24.292;2022-11-18T09:55:19;2.83;;;2.17;;
57947;SDS011;43754;56.992;24.292;2022-11-18T09:57:53;5.55;;;2.28;;
57947;SDS011;43754;56.992;24.292;2022-11-18T10:00:27;3.45;;;2.78;;
57947;SDS011;43754;56.992;24.292;2022-11-18T10:03:01;3.53;;;2.60;;
57947;SDS011;43754;56.992;24.292;2022-11-18T10:05:37;7.75;;;5.07;;
57947;SDS011;43754;56.992;24.292;2022-11-18T10:08:20;4.15;;;2.42;;
57947;SDS011;43754;56.992;24.292;2022-11-18T10:10:58;2.97;;;2.08;;
57947;SDS011;43754;56.992;24.292;2022-11-18T10:13:42;3.88;;;2.53;;
57947;SDS011;43754;56.992;24.292;2022-11-18T10:16:28;5.63;;;3.65;;
57947;SDS011;43754;56.992;24.292;2022-11-18T10:19:14;3.90;;;2.58;;
57947;SDS011;43754;56.992;24.292;2022-11-18T10:21:59;5.78;;;5.20;;
57947;SDS011;43754;56.992;24.292;2022-11-18T10:25:02;3.03;;;2.72;;
57947;SDS011;43754;56.992;24.292;2022-11-18T10:27:43;3.13;;;2.28;;
57947;SDS011;43754;56.992;24.292;2022-11-18T10:30:18;3.88;;;2.05;;
57947;SDS011;43754;56.992;24.292;2022-11-18T10:32:52;3.03;;;2.60;;
57947;SDS011;43754;56.992;24.292;2022-11-18T10:35:27;4.85;;;3.00;;
57947;SDS011;43754;56.992;24.292;2022-11-18T10:38:02;4.82;;;2.55;;
57947;SDS011;43754;56.992;24.292;2022-11-18T10:40:40;3.10;;;2.05;;
57947;SDS011;43754;56.992;24.292;2022-11-18T10:43:16;2.70;;;1.95;;
57947;SDS011;43754;56.992;24.292;2022-11-18T10:46:18;3.88;;;2.53;;
57947;SDS011;43754;56.992;24.292;2022-11-18T10:49:11;4.45;;;1.98;;
57947;SDS011;43754;56.992;24.292;2022-11-18T10:51:47;4.25;;;2.10;;
57947;SDS011;43754;56.992;24.292;2022-11-18T10:54:34;4.13;;;2.10;;
57947;SDS011;43754;56.992;24.292;2022-11-18T10:57:11;2.90;;;1.88;;
57947;SDS011;43754;56.992;24.292;2022-11-18T10:59:47;3.42;;;1.77;;
57947;SDS011;43754;56.992;24.292;2022-11-18T11:02:26;3.75;;;2.38;;
57947;SDS011;43754;56.992;24.292;2022-11-18T11:05:03;6.30;;;3.35;;
57947;SDS011;43754;56.992;24.292;2022-11-18T11:07:49;8.23;;;2.22;;
57947;SDS011;43754;56.992;24.292;2022-11-18T11:10:52;3.85;;;2.00;;
57947;SDS011;43754;56.992;24.292;2022-11-18T11:13:26;3.20;;;2.22;;
57947;SDS011;43754;56.992;24.292;2022-11-18T11:16:01;4.97;;;1.98;;
57947;SDS011;43754;56.992;24.292;2022-11-18T11:18:37;2.78;;;1.80;;
57947;SDS011;43754;56.992;24.292;2022-11-18T11:21:12;2.47;;;1.80;;
57947;SDS011;43754;56.992;24.292;2022-11-18T11:23:46;4.32;;;2.13;;
57947;SDS011;43754;56.992;24.292;2022-11-18T11:26:18;3.72;;;1.65;;
57947;SDS011;43754;56.992;24.292;2022-11-18T11:29:22;3.47;;;2.40;;
57947;SDS011;43754;56.992;24.292;2022-11-18T11:32:07;4.65;;;2.08;;
57947;SDS011;43754;56.992;24.292;2022-11-18T11:34:49;5.18;;;2.70;;
57947;SDS011;43754;56.992;24.292;2022-11-18T11:37:31;2.03;;;1.60;;
57947;SDS011;43754;56.992;24.292;2022-11-18T11:40:16;2.20;;;1.52;;
57947;SDS011;43754;56.992;24.292;2022-11-18T11:42:57;8.93;;;2.47;;
57947;SDS011;43754;56.992;24.292;2022-11-18T11:45:46;2.92;;;2.08;;
57947;SDS011;43754;56.992;24.292;2022-11-18T11:48:37;3.13;;;2.08;;
57947;SDS011;43754;56.992;24.292;2022-11-18T11:51:22;3.55;;;2.30;;
57947;SDS011;43754;56.992;24.292;2022-11-18T11:54:06;3.90;;;2.50;;
57947;SDS011;43754;56.992;24.292;2022-11-18T11:56:50;2.85;;;2.17;;
57947;SDS011;43754;56.992;24.292;2022-11-18T11:59:27;4.05;;;2.40;;
57947;SDS011;43754;56.992;24.292;2022-11-18T12:02:13;4.18;;;2.42;;
57947;SDS011;43754;56.992;24.292;2022-11-18T12:04:55;4.93;;;2.70;;
57947;SDS011;43754;56.992;24.292;2022-11-18T12:07:38;4.18;;;2.72;;
57947;SDS011;43754;56.992;24.292;2022-11-18T12:10:19;3.10;;;2.20;;
57947;SDS011;43754;56.992;24.292;2022-11-18T12:13:02;4.25;;;2.63;;
57947;SDS011;43754;56.992;24.292;2022-11-18T12:15:45;4.60;;;2.25;;
57947;SDS011;43754;56.992;24.292;2022-11-18T12:18:29;3.63;;;2.28;;
57947;SDS011;43754;56.992;24.292;2022-11-18T12:21:08;11.18;;;7.07;;
57947;SDS011;43754;56.992;24.292;2022-11-18T12:27:10;7.03;;;3.42;;
57947;SDS011;43754;56.992;24.292;2022-11-18T12:29:53;5.32;;;3.25;;
57947;SDS011;43754;56.992;24.292;2022-11-18T12:32:30;6.47;;;4.07;;
57947;SDS011;43754;56.992;24.292;2022-11-18T12:35:20;5.60;;;3.15;;
57947;SDS011;43754;56.992;24.292;2022-11-18T12:37:56;4.20;;;2.63;;
57947;SDS011;43754;56.992;24.292;2022-11-18T12:40:35;37.20;;;8.27;;
57947;SDS011;43754;56.992;24.292;2022-11-18T12:46:49;4.60;;;2.70;;
57947;SDS011;43754;56.992;24.292;2022-11-18T12:52:49;4.70;;;2.92;;
57947;SDS011;43754;56.992;24.292;2022-11-18T12:55:24;3.70;;;2.35;;
57947;SDS011;43754;56.992;24.292;2022-11-18T12:58:02;2.95;;;2.10;;
57947;SDS011;43754;56.992;24.292;2022-11-18T13:00:34;4.05;;;2.15;;
57947;SDS011;43754;56.992;24.292;2022-11-18T13:03:24;4.88;;;2.85;;
57947;SDS011;43754;56.992;24.292;2022-11-18T13:06:00;3.63;;;2.92;;
57947;SDS011;43754;56.992;24.292;2022-11-18T13:08:36;7.03;;;3.25;;
57947;SDS011;43754;56.992;24.292;2022-11-18T13:11:10;3.78;;;2.65;;
57947;SDS011;43754;56.992;24.292;2022-11-18T13:14:11;2.72;;;2.10;;
57947;SDS011;43754;56.992;24.292;2022-11-18T13:22:51;2.67;;;2.10;;
57947;SDS011;43754;56.992;24.292;2022-11-18T13:25:42;3.75;;;2.30;;
57947;SDS011;43754;56.992;24.292;2022-11-18T13:28:19;4.28;;;2.63;;
57947;SDS011;43754;56.992;24.292;2022-11-18T13:31:02;3.97;;;2.60;;
57947;SDS011;43754;56.992;24.292;2022-11-18T13:33:39;3.88;;;2.47;;
57947;SDS011;43754;56.992;24.292;2022-11-18T13:36:14;3.65;;;2.65;;
57947;SDS011;43754;56.992;24.292;2022-11-18T13:38:54;3.72;;;1.88;;
57947;SDS011;43754;56.992;24.292;2022-11-18T13:41:28;2.90;;;1.90;;
57947;SDS011;43754;56.992;24.292;2022-11-18T13:44:14;2.47;;;2.20;;
57947;SDS011;43754;56.992;24.292;2022-11-18T13:46:51;3.08;;;2.25;;
57947;SDS011;43754;56.992;24.292;2022-11-18T13:49:31;4.00;;;2.70;;
57947;SDS011;43754;56.992;24.292;2022-11-18T13:52:21;3.00;;;1.90;;
57947;SDS011;43754;56.992;24.292;2022-11-18T13:54:56;7.63;;;3.92;;
57947;SDS011;43754;56.992;24.292;2022-11-18T13:57:30;3.38;;;2.70;;
57947;SDS011;43754;56.992;24.292;2022-11-18T14:00:04;4.00;;;2.40;;
57947;SDS011;43754;56.992;24.292;2022-11-18T14:02:39;3.25;;;2.00;;
57947;SDS011;43754;56.992;24.292;2022-11-18T14:05:17;3.00;;;2.42;;
57947;SDS011;43754;56.992;24.292;2022-11-18T14:07:59;3.70;;;2.55;;
57947;SDS011;43754;56.992;24.292;2022-11-18T14:10:42;3.55;;;2.45;;
57947;SDS011;43754;56.992;24.292;2022-11-18T14:13:16;3.72;;;2.53;;
57947;SDS011;43754;56.992;24.292;2022-11-18T14:15:52;3.15;;;2.35;;
57947;SDS011;43754;56.992;24.292;2022-11-18T14:18:29;3.22;;;2.33;;
57947;SDS011;43754;56.992;24.292;2022-11-18T14:21:03;5.25;;;2.83;;
57947;SDS011;43754;56.992;24.292;2022-11-18T14:23:36;4.90;;;2.38;;
57947;SDS011;43754;56.992;24.292;2022-11-18T14:26:13;2.67;;;2.05;;
57947;SDS011;43754;56.992;24.292;2022-11-18T14:28:59;3.83;;;2.13;;
57947;SDS011;43754;56.992;24.292;2022-11-18T14:31:33;12.82;;;5.40;;
57947;SDS011;43754;56.992;24.292;2022-11-18T14:34:17;6.63;;;2.92;;
57947;SDS011;43754;56.992;24.292;2022-11-18T14:36:54;3.28;;;2.00;;
57947;SDS011;43754;56.992;24.292;2022-11-18T14:39:27;3.15;;;2.63;;
57947;SDS011;43754;56.992;24.292;2022-11-18T14:42:00;2.67;;;2.03;;
57947;SDS011;43754;56.992;24.292;2022-11-18T14:44:32;7.03;;;2.20;;
57947;SDS011;43754;56.992;24.292;2022-11-18T14:47:05;2.85;;;1.90;;
57947;SDS011;43754;56.992;24.292;2022-11-18T14:49:46;3.40;;;2.13;;
57947;SDS011;43754;56.992;24.292;2022-11-18T14:52:18;26.90;;;11.07;;
57947;SDS011;43754;56.992;24.292;2022-11-18T14:54:50;20.58;;;6.05;;
57947;SDS011;43754;56.992;24.292;2022-11-18T14:57:23;3.88;;;2.47;;
57947;SDS011;43754;56.992;24.292;2022-11-18T14:59:55;4.72;;;2.38;;
57947;SDS011;43754;56.992;24.292;2022-11-18T15:02:27;3.95;;;2.50;;
57947;SDS011;43754;56.992;24.292;2022-11-18T15:05:00;3.65;;;2.33;;
57947;SDS011;43754;56.992;24.292;2022-11-18T15:07:32;3.63;;;2.38;;
57947;SDS011;43754;56.992;24.292;2022-11-18T15:10:05;4.28;;;2.45;;
57947;SDS011;43754;56.992;24.292;2022-11-18T15:12:37;3.17;;;2.20;;
57947;SDS011;43754;56.992;24.292;2022-11-18T15:15:09;3.50;;;2.33;;
57947;SDS011;43754;56.992;24.292;2022-11-18T15:17:41;4.38;;;2.45;;
57947;SDS011;43754;56.992;24.292;2022-11-18T15:20:15;4.40;;;2.50;;
57947;SDS011;43754;56.992;24.292;2022-11-18T15:22:49;4.75;;;2.65;;
57947;SDS011;43754;56.992;24.292;2022-11-18T15:25:21;4.20;;;3.28;;
57947;SDS011;43754;56.992;24.292;2022-11-18T15:27:53;4.07;;;2.60;;
57947;SDS011;43754;56.992;24.292;2022-11-18T15:30:25;19.75;;;8.88;;
57947;SDS011;43754;56.992;24.292;2022-11-18T15:32:57;8.23;;;4.25;;
57947;SDS011;43754;56.992;24.292;2022-11-18T15:35:30;5.07;;;2.85;;
57947;SDS011;43754;56.992;24.292;2022-11-18T15:38:02;4.50;;;2.72;;
57947;SDS011;43754;56.992;24.292;2022-11-18T15:40:34;4.50;;;2.80;;
57947;SDS011;43754;56.992;24.292;2022-11-18T15:43:07;3.55;;;2.50;;
57947;SDS011;43754;56.992;24.292;2022-11-18T15:45:39;4.18;;;2.67;;
57947;SDS011;43754;56.992;24.292;2022-11-18T15:48:11;6.55;;;2.38;;
57947;SDS011;43754;56.992;24.292;2022-11-18T15:50:44;3.78;;;2.83;;
57947;SDS011;43754;56.992;24.292;2022-11-18T15:53:16;3.80;;;2.47;;